Pagrindinis puslapis
METAR-TAF:

METAR-TAF

Oro uostai :

Žuazeiro do Nortė, Ceará, Brazilija

platuma: 07-13-06S, ilguma: 039-16-18W, Aukštis: 424 m

Dabartinis oras

Ataskaita buvo paskelbta 1 valandą ir 44 minutes, ne 21:00 UTC
Ramus vėjas
Temperatūra 27°C
Drėgmė 74%
Slėgis 1014 hPa
Matomumas 10 km arba daugiau
Išsisklaidę debesys ne aukštis 2000 ft

METAR: SBJU 232100Z 00000KT 9999 SCT020 27/22 Q1014

Laikas: 19:44 (22:44 UTC)


TAF: trūkstamas

Orai ataskaitas ir orų prognozės (METAR, TAF).

turimą stotys yra geltonos ir raudonos taškus žemėlapyje.

Perkelti pele per norėdami pamatyti stoties vardą.

Tada spustelėkite, norėdami matyti oro stebėjimo ir prognozės.

Norėdami pakeisti žemėlapį: spustelėkite ant žalios mygtukų su juodo kryžiaus žemyn,; žalią mygtuką su brūkšneliu, jei norite nutolinti; arba žalių rodyklių gretimoms žemėlapius.


METAR-TAF: